Etoile — ETOILE — position and weather

sailwx.info

Track history (hours):
 
Tides and Currents Weather Stations Pressure Air Temp Water Temp Dewpoint Dewpoint Depression Visibility Wind Speed Wind Dir Waves Ship Positions

Etoile

Last reported at 2015-May-25 17:34 UTC. Time now 2015-May-25 21:35 UTC.
Position N 41°20' W 071°55'.

Length 17 m.

Type: Pleasure craft. MMSI: 367485880.

Date/timePositionNaut miles runAvg speedWind from/ knotsBaromVisibWave heightAir tempDewpointWater temp
2015-May-25 17:34N 41°20' W 071°55'5 4.6
2015-May-25 16:33N 41°16' W 071°57'5 5.4
2015-May-25 15:33N 41°12' W 072°03'7 6.5
2015-May-25 14:33N 41°09' W 072°10'7 7.2
2015-May-25 13:33N 41°07' W 072°19'2 0.0
2015-May-23 21:20N 41°05' W 072°21'3 3.5
2015-May-23 20:33N 41°06' W 072°17'4 4.5
2015-May-23 19:33N 41°05' W 072°12'5 5.1
2015-May-23 18:33N 41°09' W 072°07'5 4.5
2015-May-23 17:33N 41°09' W 072°01'6 6.4
2015-May-23 16:33N 41°14' W 071°57'6 5.9
2015-May-23 15:33N 41°20' W 071°55'  
2015-May-16 19:26N 41°20' W 071°55'2 2.0
2015-May-16 18:33N 41°18' W 071°54'1 0.6
2015-May-16 17:33N 41°19' W 071°55'1 0.7
2015-May-16 16:33N 41°18' W 071°55'  
Track history (hours):
 
Tides and Currents Weather Stations Pressure Air Temp Water Temp Dewpoint Dewpoint Depression Visibility Wind Speed Wind Dir Waves Ship Positions

Etoile

Last reported at 2015-May-25 17:34 UTC. Time now 2015-May-25 21:35 UTC.
Position N 41°20' W 071°55'.

Length 17 m.

Type: Pleasure craft. MMSI: 367485880.

Date/timePositionNaut miles runAvg speedWind from/ knotsBaromVisibWave heightAir tempDewpointWater temp
2015-May-25 17:34N 41°20' W 071°55'5 4.6
2015-May-25 16:33N 41°16' W 071°57'5 5.4
2015-May-25 15:33N 41°12' W 072°03'7 6.5
2015-May-25 14:33N 41°09' W 072°10'7 7.2
2015-May-25 13:33N 41°07' W 072°19'2 0.0
2015-May-23 21:20N 41°05' W 072°21'3 3.5
2015-May-23 20:33N 41°06' W 072°17'4 4.5
2015-May-23 19:33N 41°05' W 072°12'5 5.1
2015-May-23 18:33N 41°09' W 072°07'5 4.5
2015-May-23 17:33N 41°09' W 072°01'6 6.4
2015-May-23 16:33N 41°14' W 071°57'6 5.9
2015-May-23 15:33N 41°20' W 071°55'  
2015-May-16 19:26N 41°20' W 071°55'2 2.0
2015-May-16 18:33N 41°18' W 071°54'1 0.6
2015-May-16 17:33N 41°19' W 071°55'1 0.7
2015-May-16 16:33N 41°18' W 071°55'  

Dump ship's entire track history